Time;durP1;ratioP1;P1;durP2;ratioP2;P2;SDS_P1;SDS_P2;PMS_P1;PMS_P2;Temp;Humidity;BMP_temperature;BMP_pressure;BME280_temperature;BME280_humidity;BME280_pressure;Samples;Min_cycle;Max_cycle;Signal;HPM_P1;HPM_P2
2022/05/27 00:00:54;;;;;;;14.25;7.80;;;25.80;1.00;;;;;;5014194;28;20034;-48
2022/05/27 00:03:20;;;;;;;13.50;7.70;;;25.70;1.00;;;;;;5015828;28;20030;-46
2022/05/27 00:05:51;;;;;;;13.43;9.13;;;25.70;1.00;;;;;;5011364;28;20115;-52
2022/05/27 00:08:17;;;;;;;9.98;8.02;;;25.60;1.00;;;;;;5016012;28;20061;-48
2022/05/27 00:10:43;;;;;;;17.23;9.18;;;25.60;1.00;;;;;;5015016;28;20353;-50
2022/05/27 00:13:08;;;;;;;10.73;7.60;;;25.60;1.00;;;;;;5007453;28;20094;-50
2022/05/27 00:15:34;;;;;;;10.57;8.60;;;25.50;1.00;;;;;;5030609;28;20038;-47
2022/05/27 00:18:00;;;;;;;9.27;8.18;;;25.50;1.00;;;;;;5014335;28;20049;-49
2022/05/27 00:20:26;;;;;;;14.40;8.48;;;25.50;1.00;;;;;;5012886;28;20460;-49
2022/05/27 00:22:52;;;;;;;13.82;8.27;;;25.50;1.00;;;;;;5011211;28;20034;-51
2022/05/27 00:25:19;;;;;;;12.25;7.80;;;25.50;1.00;;;;;;5005072;28;20575;-49
2022/05/27 00:27:45;;;;;;;12.13;8.93;;;25.50;1.00;;;;;;5005499;28;20549;-48
2022/05/27 00:30:11;;;;;;;9.93;8.50;;;25.50;1.00;;;;;;5010321;28;20030;-50
2022/05/27 00:32:38;;;;;;;12.00;8.30;;;25.50;1.00;;;;;;5012239;28;20029;-47
2022/05/27 00:35:05;;;;;;;14.25;9.45;;;25.60;1.00;;;;;;5009221;28;20430;-49
2022/05/27 00:37:31;;;;;;;10.52;8.63;;;25.40;1.00;;;;;;5006481;28;20404;-51
2022/05/27 00:39:57;;;;;;;10.80;8.48;;;25.40;1.00;;;;;;4996856;28;20025;-46
2022/05/27 00:42:23;;;;;;;10.57;9.10;;;25.40;1.00;;;;;;4996590;28;20500;-48
2022/05/27 00:44:49;;;;;;;13.35;9.13;;;25.40;1.00;;;;;;4996019;28;20117;-50
2022/05/27 00:47:19;;;;;;;11.98;8.93;;;25.40;1.00;;;;;;5011076;28;20065;-49
2022/05/27 00:49:55;;;;;;;12.27;9.48;;;25.40;1.00;;;;;;5015295;28;20502;-50
2022/05/27 00:52:24;;;;;;;16.70;9.25;;;25.50;1.00;;;;;;5013845;28;20061;-50
2022/05/27 00:54:49;;;;;;;15.98;9.48;;;25.50;1.00;;;;;;5015343;28;20029;-50
2022/05/27 00:57:20;;;;;;;13.02;9.55;;;25.30;1.00;;;;;;4999450;28;20432;-48
2022/05/27 01:00:07;;;;;;;15.18;9.52;;;25.40;1.00;;;;;;5004304;28;20034;-47
2022/05/27 01:02:36;;;;;;;12.15;9.73;;;25.40;1.00;;;;;;5012277;28;20045;-46
2022/05/27 01:05:04;;;;;;;16.33;11.25;;;25.30;1.00;;;;;;5013378;28;20056;-46
2022/05/27 01:07:30;;;;;;;14.13;10.20;;;25.40;1.00;;;;;;5013033;28;20787;-48
2022/05/27 01:09:56;;;;;;;15.77;10.05;;;25.30;1.00;;;;;;5008107;28;20089;-49
2022/05/27 01:12:37;;;;;;;13.57;9.63;;;25.30;1.00;;;;;;5005638;28;20026;-51
2022/05/27 01:15:27;;;;;;;13.63;10.05;;;25.30;1.00;;;;;;5006939;28;20065;-48
2022/05/27 01:18:12;;;;;;;11.27;9.27;;;25.30;1.00;;;;;;5006190;28;20030;-49
2022/05/27 01:20:43;;;;;;;;;;;25.20;1.00;;;;;;5013687;28;20511;-48
2022/05/27 01:23:39;;;;;;;10.32;7.90;;;25.00;1.00;;;;;;5013513;28;19944;-49
2022/05/27 01:26:38;;;;;;;11.48;8.27;;;25.00;1.00;;;;;;5006079;28;20045;-46
2022/05/27 01:29:28;;;;;;;11.95;7.82;;;25.00;1.00;;;;;;4994844;28;20220;-47
2022/05/27 01:32:18;;;;;;;10.93;8.35;;;25.00;1.00;;;;;;4994298;28;20109;-47
2022/05/27 01:34:57;;;;;;;9.35;7.30;;;25.00;1.00;;;;;;5009603;28;20479;-47
2022/05/27 01:37:51;;;;;;;12.25;8.02;;;25.00;1.00;;;;;;5011056;28;20018;-47
2022/05/27 01:40:22;;;;;;;11.93;8.23;;;25.00;1.00;;;;;;4994843;28;20037;-49
2022/05/27 01:46:29;;;;;;;11.60;9.10;;;24.90;1.00;;;;;;5004910;28;20040;-47
2022/05/27 01:49:25;;;;;;;15.65;9.93;;;24.90;1.00;;;;;;5014200;28;20472;-53
2022/05/27 01:52:23;;;;;;;17.38;10.18;;;24.80;1.00;;;;;;5012805;28;20032;-47
2022/05/27 01:54:59;;;;;;;20.27;10.73;;;24.70;1.00;;;;;;5002425;28;20034;-49
2022/05/27 01:58:21;;;;;;;16.60;11.27;;;24.70;1.00;;;;;;5013137;28;20030;-49
2022/05/27 02:00:49;;;;;;;11.35;10.15;;;24.70;1.00;;;;;;4997274;28;20132;-48
2022/05/27 02:03:22;;;;;;;14.05;10.90;;;24.60;1.00;;;;;;4997002;28;20079;-50
2022/05/27 02:05:51;;;;;;;11.73;9.32;;;24.70;1.00;;;;;;4995033;28;20596;-51
2022/05/27 02:08:24;;;;;;;11.23;9.55;;;24.70;1.00;;;;;;5012721;28;20057;-47
2022/05/27 02:11:07;;;;;;;14.13;9.55;;;24.60;1.00;;;;;;5012069;28;20022;-48
2022/05/27 02:13:45;;;;;;;15.80;10.23;;;24.60;1.00;;;;;;4994580;28;20022;-47
2022/05/27 02:16:26;;;;;;;13.55;9.85;;;24.60;1.00;;;;;;4999595;28;20057;-49
2022/05/27 02:18:56;;;;;;;12.18;9.57;;;24.50;1.00;;;;;;5013691;28;20034;-51
2022/05/27 02:21:28;;;;;;;14.07;9.48;;;24.50;1.00;;;;;;5007164;28;20077;-50
2022/05/27 02:24:18;;;;;;;11.88;9.48;;;24.50;1.00;;;;;;4994474;28;20034;-50
2022/05/27 02:26:48;;;;;;;10.93;9.23;;;24.40;1.00;;;;;;5009400;28;20058;-47
2022/05/27 02:29:20;;;;;;;16.15;9.88;;;24.40;1.00;;;;;;5005484;28;20030;-50
2022/05/27 02:31:51;;;;;;;13.20;9.93;;;24.40;1.00;;;;;;4996038;28;20488;-50
2022/05/27 02:37:12;;;;;;;14.40;9.80;;;24.30;1.00;;;;;;5002575;28;20397;-46
2022/05/27 02:39:38;;;;;;;15.15;9.82;;;24.40;1.00;;;;;;5013541;28;20026;-49
2022/05/27 02:42:10;;;;;;;14.77;9.77;;;24.30;1.00;;;;;;5012626;28;20049;-48
2022/05/27 02:45:09;;;;;;;11.30;10.02;;;24.40;1.00;;;;;;5013300;28;20037;-51
2022/05/27 02:47:56;;;;;;;14.07;11.13;;;24.40;1.00;;;;;;5008663;28;20092;-50
2022/05/27 02:50:47;;;;;;;13.52;10.52;;;24.30;1.00;;;;;;5013322;28;20032;-50
2022/05/27 02:53:26;;;;;;;13.02;10.27;;;24.30;1.00;;;;;;4986065;28;20046;-54
2022/05/27 02:56:20;;;;;;;13.40;9.90;;;24.40;1.00;;;;;;5007262;28;20109;-51
2022/05/27 02:58:48;;;;;;;13.60;9.93;;;24.40;1.00;;;;;;5012491;28;20073;-49
2022/05/27 03:01:14;;;;;;;15.43;9.77;;;24.40;1.00;;;;;;5012147;28;20026;-47
2022/05/27 03:03:39;;;;;;;12.15;9.65;;;24.30;1.00;;;;;;5012113;28;20491;-49
2022/05/27 03:06:08;;;;;;;12.40;9.95;;;24.20;1.00;;;;;;5006759;28;20873;-49
2022/05/27 03:08:58;;;;;;;13.55;9.85;;;24.20;1.00;;;;;;5012951;28;20077;-49
2022/05/27 03:11:34;;;;;;;14.30;9.68;;;24.20;1.00;;;;;;5009885;28;20037;-51
2022/05/27 03:14:17;;;;;;;12.20;9.63;;;24.20;1.00;;;;;;5013863;28;20026;-49
2022/05/27 03:16:52;;;;;;;13.10;9.50;;;24.10;1.00;;;;;;5005590;28;20034;-47
2022/05/27 03:19:42;;;;;;;;;;;24.20;1.00;;;;;;4993899;28;20034;-47
2022/05/27 03:22:35;;;;;;;22.20;10.20;;;24.10;1.00;;;;;;5002760;28;19922;-49
2022/05/27 03:25:22;;;;;;;11.60;9.25;;;24.10;1.00;;;;;;5013267;28;20045;-49
2022/05/27 03:27:52;;;;;;;13.23;9.45;;;24.00;1.00;;;;;;5008247;28;20448;-46
2022/05/27 03:30:20;;;;;;;11.88;10.73;;;24.10;1.00;;;;;;5013014;28;20030;-52
2022/05/27 03:33:04;;;;;;;13.27;10.57;;;24.00;1.00;;;;;;5012144;28;20088;-47
2022/05/27 03:35:39;;;;;;;15.27;9.82;;;24.10;1.00;;;;;;5012497;28;20029;-50
2022/05/27 03:38:08;;;;;;;;;;;24.10;1.00;;;;;;5011268;28;20030;-49
2022/05/27 03:40:49;;;;;;;13.40;11.00;;;24.10;1.00;;;;;;5011253;28;19936;-49
2022/05/27 03:43:15;;;;;;;15.00;10.20;;;24.00;1.00;;;;;;4993748;28;20049;-46
2022/05/27 03:45:54;;;;;;;13.52;9.93;;;23.90;1.00;;;;;;4993218;28;20030;-46
2022/05/27 03:48:21;;;;;;;14.23;10.07;;;24.10;1.00;;;;;;5010351;28;20121;-46
2022/05/27 03:50:49;;;;;;;13.25;10.65;;;24.00;1.00;;;;;;5010276;28;20088;-48
2022/05/27 03:53:14;;;;;;;15.27;11.15;;;24.00;1.00;;;;;;5011490;28;20092;-50
2022/05/27 03:55:44;;;;;;;17.23;11.60;;;24.00;1.00;;;;;;5006475;28;20500;-46
2022/05/27 03:58:12;;;;;;;13.40;12.05;;;24.10;1.00;;;;;;5009542;28;20034;-46
2022/05/27 04:00:39;;;;;;;16.30;11.45;;;24.00;1.00;;;;;;5014765;28;20018;-48
2022/05/27 04:03:05;;;;;;;13.80;12.30;;;23.90;1.00;;;;;;5014049;28;20038;-46
2022/05/27 04:05:30;;;;;;;14.23;11.38;;;24.00;1.00;;;;;;5015384;28;20041;-47
2022/05/27 04:07:56;;;;;;;17.98;12.63;;;24.00;1.00;;;;;;5015396;28;20113;-46
2022/05/27 04:10:40;;;;;;;16.52;13.40;;;24.10;1.00;;;;;;5015781;28;20480;-46
2022/05/27 04:13:06;;;;;;;18.75;13.65;;;24.00;1.00;;;;;;5014550;28;20026;-47
2022/05/27 04:15:31;;;;;;;17.10;11.45;;;24.00;1.00;;;;;;5013920;28;20472;-49
2022/05/27 04:17:57;;;;;;;13.45;11.57;;;23.90;1.00;;;;;;5014527;28;20065;-48
2022/05/27 04:20:22;;;;;;;17.85;11.55;;;24.10;1.00;;;;;;5015097;28;20029;-49
2022/05/27 04:22:54;;;;;;;15.90;11.82;;;24.10;1.00;;;;;;5012049;28;20470;-47
2022/05/27 04:25:21;;;;;;;16.02;11.93;;;24.10;1.00;;;;;;5011381;28;20018;-50
2022/05/27 04:27:47;;;;;;;19.00;11.90;;;24.00;1.00;;;;;;4994905;28;20030;-49
2022/05/27 04:30:14;;;;;;;15.90;11.90;;;24.00;1.00;;;;;;4996232;28;20122;-51
2022/05/27 04:32:39;;;;;;;14.15;12.35;;;23.90;1.00;;;;;;4994981;28;20030;-48
2022/05/27 04:35:06;;;;;;;14.35;12.45;;;24.00;1.00;;;;;;4996463;28;20052;-48
2022/05/27 04:37:31;;;;;;;18.58;12.23;;;24.00;1.00;;;;;;5004364;28;20038;-50
2022/05/27 04:39:57;;;;;;;15.35;13.63;;;24.00;1.00;;;;;;5013843;28;20169;-49
2022/05/27 04:42:22;;;;;;;18.30;12.32;;;24.00;1.00;;;;;;5009966;28;20038;-50
2022/05/27 04:44:48;;;;;;;16.55;12.82;;;24.00;1.00;;;;;;5011999;28;20498;-48
2022/05/27 04:47:14;;;;;;;17.02;13.07;;;24.10;1.00;;;;;;5011085;28;20041;-48
2022/05/27 04:49:51;;;;;;;15.05;12.45;;;24.10;1.00;;;;;;5012242;28;20021;-48
2022/05/27 04:52:18;;;;;;;18.15;12.45;;;24.10;1.00;;;;;;5011413;28;20037;-52
2022/05/27 04:54:44;;;;;;;17.65;13.18;;;24.10;1.00;;;;;;5010249;28;20372;-51
2022/05/27 04:57:16;;;;;;;15.73;12.93;;;24.00;1.00;;;;;;5013082;28;20045;-50
2022/05/27 04:59:45;;;;;;;17.50;14.23;;;24.00;1.00;;;;;;5012455;28;20026;-49
2022/05/27 05:02:10;;;;;;;20.88;14.70;;;24.00;1.00;;;;;;5010821;28;20522;-49
2022/05/27 05:04:36;;;;;;;18.63;13.60;;;24.10;1.00;;;;;;5003045;28;20124;-48
2022/05/27 05:07:07;;;;;;;19.92;13.60;;;24.00;1.00;;;;;;5000417;28;20030;-53
2022/05/27 05:09:33;;;;;;;14.77;13.13;;;23.90;1.00;;;;;;5014356;28;20425;-49
2022/05/27 05:11:59;;;;;;;18.17;14.25;;;24.00;1.00;;;;;;5013598;28;20113;-52
2022/05/27 05:14:25;;;;;;;18.35;14.65;;;24.00;1.00;;;;;;5014809;28;20053;-52
2022/05/27 05:16:51;;;;;;;19.48;15.25;;;24.00;1.00;;;;;;5013865;28;20538;-49
2022/05/27 05:19:17;;;;;;;20.30;13.63;;;24.10;1.00;;;;;;5013621;28;20030;-52
2022/05/27 05:21:43;;;;;;;15.98;13.35;;;24.20;1.00;;;;;;5013819;28;20050;-50
2022/05/27 05:24:08;;;;;;;16.42;13.77;;;24.30;1.00;;;;;;5008558;28;20030;-52
2022/05/27 05:26:34;;;;;;;19.92;16.33;;;24.30;1.00;;;;;;4995175;28;20034;-54
2022/05/27 05:29:00;;;;;;;17.67;13.40;;;24.30;1.00;;;;;;5014506;28;20025;-51
2022/05/27 05:31:25;;;;;;;18.95;13.65;;;24.30;1.00;;;;;;5015158;28;20037;-48
2022/05/27 05:33:51;;;;;;;18.30;14.05;;;24.50;1.00;;;;;;5012495;28;20500;-54
2022/05/27 05:36:16;;;;;;;22.80;14.98;;;24.40;1.00;;;;;;5013121;28;20053;-51
2022/05/27 05:38:42;;;;;;;20.00;16.23;;;24.40;1.00;;;;;;5011746;28;20030;-52
2022/05/27 05:41:08;;;;;;;21.92;17.13;;;24.60;1.00;;;;;;5011547;28;20030;-49
2022/05/27 05:43:34;;;;;;;17.58;15.40;;;24.60;1.00;;;;;;5011042;28;20042;-51
2022/05/27 05:46:00;;;;;;;26.13;17.17;;;24.60;1.00;;;;;;4996168;28;20030;-53
2022/05/27 05:48:25;;;;;;;19.30;15.77;;;24.60;1.00;;;;;;5010903;28;20052;-50
2022/05/27 05:50:51;;;;;;;22.08;16.60;;;24.70;1.00;;;;;;5010368;28;20053;-49
2022/05/27 05:53:19;;;;;;;24.65;18.65;;;24.60;1.00;;;;;;5013294;28;20195;-53
2022/05/27 05:55:45;;;;;;;19.33;17.25;;;24.70;1.00;;;;;;5014220;28;20468;-53
2022/05/27 05:58:11;;;;;;;25.58;19.13;;;24.70;1.00;;;;;;5001302;28;20034;-49
2022/05/27 06:00:36;;;;;;;26.05;17.77;;;24.60;1.00;;;;;;4993038;28;20026;-48
2022/05/27 06:03:02;;;;;;;21.77;17.73;;;24.70;1.00;;;;;;5008245;28;20045;-52
2022/05/27 06:08:50;;;;;;;22.92;17.77;;;24.80;1.00;;;;;;5003126;28;20145;-49
2022/05/27 06:11:16;;;;;;;25.95;18.02;;;24.90;1.00;;;;;;5012355;28;20112;-46
2022/05/27 06:13:41;;;;;;;20.67;17.70;;;25.00;1.00;;;;;;5010839;28;20468;-46
2022/05/27 06:16:09;;;;;;;25.90;19.25;;;25.00;1.00;;;;;;5012452;28;20026;-50
2022/05/27 06:18:36;;;;;;;24.70;17.75;;;25.00;1.00;;;;;;4997497;28;20025;-47
2022/05/27 06:21:02;;;;;;;21.80;17.88;;;25.10;1.00;;;;;;5012155;28;20053;-48
2022/05/27 06:23:28;;;;;;;23.55;17.23;;;25.20;1.00;;;;;;5012690;28;20042;-46
2022/05/27 06:26:11;;;;;;;27.42;18.20;;;25.20;1.00;;;;;;5013902;28;20112;-48
2022/05/27 06:34:25;;;;;;;24.60;18.77;;;25.40;1.00;;;;;;5000715;28;20040;-49
2022/05/27 06:37:05;;;;;;;27.30;20.85;;;25.40;1.00;;;;;;5013484;28;20017;-50
2022/05/27 06:39:34;;;;;;;24.88;19.98;;;25.40;1.00;;;;;;5012268;28;20041;-50
2022/05/27 06:42:00;;;;;;;25.17;18.10;;;25.40;1.00;;;;;;5002809;28;20034;-48
2022/05/27 06:44:25;;;;;;;30.67;17.73;;;25.40;1.00;;;;;;5002612;28;20032;-51
2022/05/27 06:46:52;;;;;;;25.40;19.45;;;25.40;1.00;;;;;;5007859;28;20038;-51
2022/05/27 06:49:19;;;;;;;27.15;19.75;;;25.40;1.00;;;;;;5002375;28;20037;-54
2022/05/27 06:51:45;;;;;;;26.38;20.52;;;25.50;1.00;;;;;;5003774;28;20543;-54
2022/05/27 06:54:12;;;;;;;27.63;19.92;;;25.50;1.00;;;;;;5001720;28;20084;-53
2022/05/27 06:56:40;;;;;;;28.25;19.17;;;25.40;1.00;;;;;;5010330;28;20076;-54
2022/05/27 06:59:07;;;;;;;26.13;19.25;;;25.50;1.00;;;;;;5012187;28;20034;-50
2022/05/27 07:01:33;;;;;;;30.05;20.55;;;25.50;1.00;;;;;;5006768;28;20045;-51
2022/05/27 07:03:59;;;;;;;30.73;21.20;;;25.60;1.00;;;;;;5006340;28;20137;-51
2022/05/27 07:06:37;;;;;;;33.15;21.20;;;25.60;1.00;;;;;;4994823;28;20427;-53
2022/05/27 07:09:05;;;;;;;30.58;20.50;;;25.60;1.00;;;;;;4999706;28;20037;-54
2022/05/27 07:11:32;;;;;;;29.40;22.10;;;25.70;1.00;;;;;;5011030;28;20026;-53
2022/05/27 07:13:57;;;;;;;25.13;22.42;;;25.70;1.00;;;;;;5000419;28;20030;-49
2022/05/27 07:16:23;;;;;;;23.98;20.73;;;25.70;1.00;;;;;;4995525;28;20101;-50
2022/05/27 07:18:49;;;;;;;24.88;19.52;;;25.60;1.00;;;;;;5011502;28;20034;-49
2022/05/27 07:21:14;;;;;;;29.58;19.45;;;25.60;1.00;;;;;;5001876;28;20041;-51
2022/05/27 07:23:40;;;;;;;32.10;21.38;;;25.70;1.00;;;;;;5000545;28;20038;-51
2022/05/27 07:26:06;;;;;;;23.50;20.80;;;25.70;1.00;;;;;;5010790;28;20033;-52
2022/05/27 07:28:31;;;;;;;21.48;18.95;;;25.80;1.00;;;;;;5003249;28;20042;-53
2022/05/27 07:31:01;;;;;;;29.85;20.83;;;25.70;1.00;;;;;;5010260;28;20026;-54
2022/05/27 07:33:27;;;;;;;23.73;20.42;;;25.80;1.00;;;;;;5009978;28;20468;-50
2022/05/27 07:35:53;;;;;;;23.77;20.00;;;25.80;1.00;;;;;;5013280;28;20026;-47
2022/05/27 07:38:19;;;;;;;26.60;17.92;;;25.80;1.00;;;;;;5011069;28;20036;-47
2022/05/27 07:40:44;;;;;;;28.35;21.15;;;25.90;1.00;;;;;;5010567;28;20424;-49
2022/05/27 07:43:10;;;;;;;25.75;20.70;;;25.90;1.00;;;;;;5011616;28;20101;-49
2022/05/27 07:45:39;;;;;;;25.30;20.60;;;26.00;1.00;;;;;;5010052;28;20084;-49
2022/05/27 07:48:05;;;;;;;27.20;20.95;;;26.00;1.00;;;;;;5007311;28;20484;-47
2022/05/27 07:50:31;;;;;;;25.60;21.17;;;25.90;1.00;;;;;;5012040;28;20537;-50
2022/05/27 07:52:57;;;;;;;25.40;20.45;;;26.00;1.00;;;;;;5015930;28;20128;-49
2022/05/27 07:55:23;;;;;;;28.88;22.35;;;26.00;1.00;;;;;;5008734;28;20121;-47
2022/05/27 07:57:49;;;;;;;27.45;21.88;;;26.10;1.00;;;;;;5013698;28;20533;-47
2022/05/27 08:00:29;;;;;;;31.15;23.10;;;26.00;1.00;;;;;;5012693;28;20069;-52
2022/05/27 08:02:56;;;;;;;27.65;21.73;;;26.00;1.00;;;;;;5013806;28;20046;-50
2022/05/27 08:05:25;;;;;;;22.90;18.77;;;26.00;1.00;;;;;;5007987;28;20460;-51
2022/05/27 08:07:52;;;;;;;23.58;16.15;;;26.20;1.00;;;;;;5006078;28;20022;-50
2022/05/27 08:10:22;;;;;;;28.05;20.38;;;26.30;1.00;;;;;;5010053;28;20434;-53
2022/05/27 08:12:48;;;;;;;27.40;21.27;;;26.30;1.00;;;;;;5014190;28;20029;-50
2022/05/27 08:15:15;;;;;;;26.98;20.80;;;26.40;1.00;;;;;;5005697;28;20035;-53
2022/05/27 08:17:41;;;;;;;30.35;22.52;;;26.30;1.00;;;;;;5014281;28;20030;-52
2022/05/27 08:20:08;;;;;;;23.52;19.75;;;26.30;1.00;;;;;;5013795;28;20033;-48
2022/05/27 08:25:58;;;;;;;27.85;18.55;;;26.60;1.00;;;;;;4996239;28;20093;-49
2022/05/27 08:28:24;;;;;;;23.08;17.60;;;26.70;1.00;;;;;;5010601;28;20068;-49
2022/05/27 08:30:55;;;;;;;22.50;17.42;;;26.70;1.00;;;;;;5001534;28;20038;-51
2022/05/27 08:33:22;;;;;;;19.50;17.27;;;27.00;1.00;;;;;;5001840;28;20030;-51
2022/05/27 08:38:34;;;;;;;19.83;15.57;;;27.00;1.00;;;;;;5013656;28;20040;-53
2022/05/27 08:41:20;;;;;;;23.00;17.25;;;27.00;1.00;;;;;;5010724;28;20036;-50
2022/05/27 08:44:25;;;;;;;26.73;17.38;;;26.90;1.00;;;;;;5005136;28;20042;-51
2022/05/27 08:47:09;;;;;;;;;;;27.00;1.00;;;;;;5005755;28;20128;-53
2022/05/27 08:49:41;;;;;;;20.30;17.33;;;26.90;1.00;;;;;;5012178;28;19914;-48
2022/05/27 08:52:23;;;;;;;27.65;20.73;;;26.90;1.00;;;;;;5012470;28;20026;-46
2022/05/27 08:54:57;;;;;;;24.27;20.63;;;26.90;1.00;;;;;;5001356;28;20034;-47
2022/05/27 09:00:17;;;;;;;28.70;22.27;;;27.00;1.00;;;;;;5005757;28;20137;-48
2022/05/27 09:03:04;;;;;;;21.90;19.25;;;26.90;1.00;;;;;;5010435;28;20050;-49
2022/05/27 09:05:36;;;;;;;20.77;17.38;;;27.00;1.00;;;;;;5011176;28;20449;-50
2022/05/27 09:08:15;;;;;;;23.92;18.45;;;27.20;1.00;;;;;;5012905;28;20431;-50
2022/05/27 09:11:01;;;;;;;25.05;17.05;;;27.00;1.00;;;;;;5013380;28;20033;-50
2022/05/27 09:13:35;;;;;;;16.48;13.98;;;27.30;1.00;;;;;;5008862;28;20034;-48
2022/05/27 09:16:10;;;;;;;19.50;14.40;;;27.40;1.00;;;;;;5007218;28;20084;-50
2022/05/27 09:18:38;;;;;;;25.75;21.02;;;27.40;1.00;;;;;;5014278;28;20080;-53
2022/05/27 09:21:22;;;;;;;19.40;15.40;;;27.40;1.00;;;;;;5013597;28;20096;-51
2022/05/27 09:24:25;;;;;;;17.63;14.18;;;27.40;1.00;;;;;;5006001;28;20038;-49
2022/05/27 09:26:54;;;;;;;22.67;16.85;;;27.50;1.00;;;;;;5013228;28;20117;-49
2022/05/27 09:29:42;;;;;;;23.33;17.80;;;27.60;1.00;;;;;;5012787;28;20128;-48
2022/05/27 09:32:21;;;;;;;27.38;16.75;;;27.60;1.00;;;;;;4996803;28;20129;-48
2022/05/27 09:34:49;;;;;;;24.52;19.08;;;27.60;1.00;;;;;;5008975;28;20034;-50
2022/05/27 09:44:13;;;;;;;24.35;18.23;;;27.70;1.00;;;;;;4997997;28;20125;-52
2022/05/27 09:47:04;;;;;;;26.55;19.92;;;27.70;1.00;;;;;;4994123;28;20034;-49
2022/05/27 09:49:31;;;;;;;26.63;18.23;;;27.60;1.00;;;;;;5001977;28;20038;-50
2022/05/27 09:51:58;;;;;;;18.95;14.10;;;27.60;1.00;;;;;;5011981;28;20023;-50
2022/05/27 09:54:33;;;;;;;19.95;15.50;;;27.90;1.00;;;;;;5012955;28;20472;-47
2022/05/27 09:57:16;;;;;;;23.25;18.08;;;27.80;1.00;;;;;;5013404;28;20030;-54
2022/05/27 09:59:47;;;;;;;26.15;17.85;;;27.80;1.00;;;;;;5002192;28;20112;-49
2022/05/27 10:02:18;;;;;;;23.05;16.92;;;28.00;1.00;;;;;;4992767;28;20083;-51
2022/05/27 10:05:00;;;;;;;23.98;17.85;;;28.00;1.00;;;;;;5011099;28;20100;-50
2022/05/27 10:07:41;;;;;;;23.33;14.65;;;28.00;1.00;;;;;;5009778;28;20033;-48
2022/05/27 10:10:34;;;;;;;20.73;16.75;;;28.10;1.00;;;;;;5011200;28;20491;-47
2022/05/27 10:13:20;;;;;;;22.38;17.33;;;28.30;1.00;;;;;;5013714;28;20045;-51
2022/05/27 10:15:46;;;;;;;22.23;17.33;;;28.30;1.00;;;;;;5011021;28;20033;-50
2022/05/27 10:18:17;;;;;;;20.77;18.20;;;28.20;1.00;;;;;;5002260;28;20041;-47
2022/05/27 10:20:47;;;;;;;22.42;16.33;;;28.20;1.00;;;;;;5012348;28;20479;-50
2022/05/27 10:23:33;;;;;;;16.60;13.25;;;28.40;1.00;;;;;;5012961;28;20491;-53
2022/05/27 10:26:18;;;;;;;15.68;12.50;;;28.90;1.00;;;;;;5012483;28;20030;-53
2022/05/27 10:28:44;;;;;;;16.13;12.95;;;28.90;1.00;;;;;;5011080;28;20034;-46
2022/05/27 10:31:16;;;;;;;27.50;19.92;;;28.90;1.00;;;;;;5013870;28;20037;-48
2022/05/27 10:33:47;;;;;;;17.55;13.68;;;29.00;1.00;;;;;;5011684;28;20038;-52
2022/05/27 10:36:45;;;;;;;21.08;16.60;;;28.90;1.00;;;;;;4993427;28;20038;-52
2022/05/27 10:39:22;;;;;;;26.65;19.02;;;29.30;1.00;;;;;;4992720;28;20160;-49
2022/05/27 10:41:48;;;;;;;23.27;20.15;;;29.30;1.00;;;;;;5010512;28;20029;-49
2022/05/27 10:44:39;;;;;;;28.17;19.35;;;29.20;1.00;;;;;;5011707;28;20114;-49
2022/05/27 10:47:33;;;;;;;26.60;18.40;;;29.30;1.00;;;;;;4984728;28;20108;-50
2022/05/27 10:50:07;;;;;;;25.85;20.85;;;29.40;1.00;;;;;;5001372;28;20137;-46
2022/05/27 10:52:48;;;;;;;22.38;17.40;;;29.50;1.00;;;;;;5012772;28;20138;-48
2022/05/27 10:55:42;;;;;;;19.67;17.27;;;29.40;1.00;;;;;;5011763;28;20030;-47
2022/05/27 11:04:34;;;;;;;19.67;16.05;;;29.50;1.00;;;;;;4997715;28;20096;-48
2022/05/27 11:07:20;;;;;;;21.48;18.50;;;29.80;1.00;;;;;;5012058;28;20099;-50
2022/05/27 11:10:06;;;;;;;25.73;19.45;;;29.60;1.00;;;;;;5002572;28;20113;-51
2022/05/27 11:15:56;;;;;;;21.95;17.45;;;30.00;1.00;;;;;;4964059;28;20048;-47
2022/05/27 11:18:31;;;;;;;21.45;15.88;;;30.10;1.00;;;;;;5012418;28;20436;-48
2022/05/27 11:21:25;;;;;;;26.05;18.15;;;30.30;1.00;;;;;;5011342;28;20185;-47
2022/05/27 11:24:16;;;;;;;22.33;17.08;;;30.50;1.00;;;;;;4995378;28;20084;-47
2022/05/27 11:27:07;;;;;;;19.90;15.30;;;30.40;1.00;;;;;;4995794;28;20034;-50
2022/05/27 11:29:32;;;;;;;20.00;16.00;;;30.90;1.00;;;;;;5011731;28;20026;-48
2022/05/27 11:32:01;;;;;;;20.55;16.90;;;30.80;1.00;;;;;;5011379;28;20030;-51
2022/05/27 11:34:51;;;;;;;23.58;17.13;;;31.20;1.00;;;;;;5006255;28;20093;-49
2022/05/27 11:37:47;;;;;;;18.25;15.25;;;31.50;1.00;;;;;;5000256;28;20037;-47
2022/05/27 11:40:28;;;;;;;25.92;16.05;;;31.40;1.00;;;;;;5005531;28;20109;-50
2022/05/27 11:43:26;;;;;;;17.83;13.35;;;31.60;1.00;;;;;;4998106;28;20046;-47
2022/05/27 11:46:07;;;;;;;18.85;15.52;;;32.00;1.00;;;;;;4984503;28;20044;-47
2022/05/27 11:48:56;;;;;;;16.95;14.35;;;32.30;1.00;;;;;;5009621;28;20101;-48
2022/05/27 11:51:43;;;;;;;14.30;12.73;;;32.80;1.00;;;;;;4984098;28;20073;-51
2022/05/27 11:54:27;;;;;;;18.25;15.70;;;33.10;1.00;;;;;;5011338;28;20072;-50
2022/05/27 11:56:53;;;;;;;19.58;16.10;;;33.40;1.00;;;;;;5013030;28;20096;-51
2022/05/27 11:59:33;;;;;;;17.90;15.50;;;33.40;1.00;;;;;;5011708;28;20483;-51
2022/05/27 12:02:13;;;;;;;20.85;15.93;;;33.50;1.00;;;;;;5009980;28;20057;-54
2022/05/27 12:04:57;;;;;;;19.90;16.55;;;33.50;1.00;;;;;;5008883;28;20043;-50
2022/05/27 12:08:11;;;;;;;15.57;12.48;;;33.50;1.00;;;;;;5000902;28;20480;-48
2022/05/27 12:10:47;;;;;;;21.35;17.15;;;34.40;1.00;;;;;;4997704;28;20107;-49
2022/05/27 12:13:49;;;;;;;17.98;15.30;;;34.40;1.00;;;;;;5012993;28;20033;-48
2022/05/27 12:16:18;;;;;;;20.45;13.75;;;34.50;1.00;;;;;;5008821;28;20033;-50
2022/05/27 12:18:57;;;;;;;18.60;13.32;;;34.80;1.00;;;;;;5012942;28;20070;-49
2022/05/27 12:21:27;;;;;;;14.00;11.93;;;34.90;1.00;;;;;;5000184;28;20440;-51
2022/05/27 12:24:06;;;;;;;17.45;13.05;;;34.60;1.00;;;;;;5009943;28;20042;-48
2022/05/27 12:26:35;;;;;;;17.98;13.88;;;34.30;1.00;;;;;;5015169;28;20025;-50
2022/05/27 12:29:05;;;;;;;16.60;13.48;;;33.80;1.00;;;;;;5012793;28;20053;-48
2022/05/27 12:31:32;;;;;;;15.65;13.45;;;33.90;1.00;;;;;;5013967;28;20055;-49
2022/05/27 12:33:58;;;;;;;18.05;12.65;;;34.30;1.00;;;;;;5012978;28;20026;-50
2022/05/27 12:36:28;;;;;;;16.23;11.60;;;34.70;1.00;;;;;;5014026;28;20031;-52
2022/05/27 12:38:57;;;;;;;17.00;14.85;;;35.90;1.00;;;;;;5013509;28;20400;-53
2022/05/27 12:41:32;;;;;;;14.05;11.95;;;35.80;1.00;;;;;;5011044;28;20026;-52
2022/05/27 12:44:04;;;;;;;11.43;10.25;;;35.80;1.00;;;;;;5014027;28;20037;-47
2022/05/27 12:46:44;;;;;;;12.82;11.52;;;36.00;1.00;;;;;;5014158;28;20037;-49
2022/05/27 12:49:21;;;;;;;12.43;10.40;;;36.50;1.00;;;;;;5014022;28;20097;-47
2022/05/27 12:51:47;;;;;;;12.10;10.68;;;37.10;1.00;;;;;;5014990;28;20022;-52
2022/05/27 12:54:41;;;;;;;13.00;11.75;;;37.80;1.00;;;;;;5015465;28;20321;-49
2022/05/27 13:03:29;;;;;;;14.20;11.60;;;40.30;1.00;;;;;;5007085;28;20515;-48
2022/05/27 13:06:07;;;;;;;14.07;11.13;;;40.00;1.00;;;;;;5013040;28;20499;-50
2022/05/27 13:08:48;;;;;;;13.85;12.32;;;39.80;1.00;;;;;;5000951;28;20387;-48
2022/05/27 13:11:34;;;;;;;13.43;12.05;;;39.10;1.00;;;;;;5009582;28;20037;-50
2022/05/27 13:14:20;;;;;;;20.15;12.10;;;37.90;1.00;;;;;;5011181;28;20165;-48
2022/05/27 13:16:48;;;;;;;16.10;12.38;;;37.70;1.00;;;;;;5009902;28;20029;-49
2022/05/27 13:19:26;;;;;;;14.10;12.68;;;37.50;1.00;;;;;;5010608;28;20034;-53
2022/05/27 13:21:56;;;;;;;14.25;11.95;;;37.90;1.00;;;;;;5010203;28;20033;-49
2022/05/27 13:24:29;;;;;;;13.32;10.70;;;37.80;1.00;;;;;;5013093;28;20021;-48
2022/05/27 13:27:04;;;;;;;;;;;37.70;1.00;;;;;;5010967;28;20430;-49
2022/05/27 13:29:53;;;;;;;13.57;12.10;;;37.30;1.00;;;;;;5011838;28;19934;-47
2022/05/27 13:32:22;;;;;;;19.63;12.07;;;37.60;1.00;;;;;;5004784;28;20036;-46
2022/05/27 13:34:57;;;;;;;15.45;11.90;;;37.60;1.00;;;;;;5001927;28;20108;-50
2022/05/27 13:37:42;;;;;;;15.45;11.13;;;38.00;1.00;;;;;;5012815;28;20041;-48
2022/05/27 13:40:12;;;;;;;12.98;11.68;;;38.50;1.00;;;;;;5008727;28;20038;-46
2022/05/27 13:42:46;;;;;;;15.23;11.95;;;39.00;1.00;;;;;;5014033;28;20132;-45
2022/05/27 13:45:14;;;;;;;12.68;10.85;;;39.00;1.00;;;;;;5007639;28;20436;-49
2022/05/27 13:47:48;;;;;;;17.25;10.90;;;39.20;1.00;;;;;;5010248;28;20041;-47
2022/05/27 13:50:32;;;;;;;11.77;10.35;;;39.10;1.00;;;;;;5030389;28;20541;-46
2022/05/27 13:53:11;;;;;;;14.95;10.43;;;38.90;1.00;;;;;;5006032;28;20030;-50
2022/05/27 13:55:37;;;;;;;13.05;9.75;;;38.70;1.00;;;;;;5012865;28;20026;-47
2022/05/27 13:58:03;;;;;;;14.38;10.02;;;38.30;1.00;;;;;;5012206;28;20033;-52
2022/05/27 14:00:37;;;;;;;11.20;9.80;;;38.40;1.00;;;;;;5002935;28;20032;-50